KHWD/HWD METAR and TAF weather

Enter ICAO airport designator
Station Type Date Time Source
KHWD METAR 2020/01/28 11:54 UTC NOAA

KHWD 281154Z AUTO 14003KT 10SM OVC033 11/09 A3036 RMK AO2 SLP290 T01060089 10117 20089 58003


Station Type Date Time Source
KHWD Decoded METAR 2020/01/28 11:54 UTC NOAA

HAYWARD AIR TERMINAL, CA, United States (KHWD) 37-40N 122-07W 21M
Jan 28, 2020 - 06:54 AM EST / 2020.01.28 1154 UTC
Wind: from the SE (140 degrees) at 3 MPH (3 KT):0
Visibility: 10 mile(s):0
Sky conditions: overcast
Temperature: 51.1 F (10.6 C)
Dew Point: 48.0 F (8.9 C)
Relative Humidity: 89%
Pressure (altimeter): 30.36 in. Hg (1028 hPa)
Pressure tendency: 0.01 inches (0.3 hPa) lower than three hours ago
ob: KHWD 281154Z AUTO 14003KT 10SM OVC033 11/09 A3036 RMK AO2 SLP290 T01060089 10117 20089 58003
cycle: 12

Station Type Date Time Source
KHWD TAF UTC NOAA

Error!

Example: see airport list